createdAt,value
2018-11-29T00:00:04.151Z,0.00
2018-11-29T00:01:04.140Z,0.00
2018-11-29T00:02:04.132Z,0.00
2018-11-29T00:03:04.117Z,0.00
2018-11-29T00:04:04.107Z,0.00
2018-11-29T00:05:04.103Z,0.00
2018-11-29T00:06:04.086Z,0.00
2018-11-29T00:07:04.075Z,0.00
2018-11-29T00:08:04.062Z,0.00
2018-11-29T00:09:04.056Z,0.00
2018-11-29T00:10:04.043Z,0.00
2018-11-29T00:11:04.030Z,0.00
2018-11-29T00:12:04.022Z,0.00
2018-11-29T00:13:04.008Z,0.00
2018-11-29T00:14:03.999Z,0.00
2018-11-29T00:15:03.988Z,0.00
2018-11-29T00:16:03.977Z,0.00
2018-11-29T00:17:03.967Z,0.00
2018-11-29T00:18:03.958Z,0.00
2018-11-29T00:19:03.947Z,0.00
2018-11-29T00:20:03.934Z,0.00
2018-11-29T00:21:03.927Z,0.00
2018-11-29T00:22:03.924Z,0.00
2018-11-29T00:23:03.904Z,0.00
2018-11-29T00:24:03.890Z,0.00
2018-11-29T00:25:03.881Z,0.00
2018-11-29T00:26:03.868Z,0.00
2018-11-29T00:27:03.859Z,0.00
2018-11-29T00:28:03.847Z,0.00
2018-11-29T00:29:03.836Z,0.00
2018-11-29T00:30:03.828Z,0.00
2018-11-29T00:31:03.818Z,0.00
2018-11-29T00:32:03.806Z,0.00
2018-11-29T00:33:03.804Z,0.00
2018-11-29T00:34:03.784Z,0.00
2018-11-29T00:35:03.773Z,0.00
2018-11-29T00:36:03.761Z,0.00
2018-11-29T00:37:03.750Z,0.00
2018-11-29T00:38:03.741Z,0.00
2018-11-29T00:39:03.729Z,0.00
2018-11-29T00:40:03.719Z,0.00
2018-11-29T00:41:03.708Z,0.00
2018-11-29T00:42:03.698Z,0.00
2018-11-29T00:43:03.685Z,0.00
2018-11-29T00:44:03.676Z,0.00
2018-11-29T00:45:03.663Z,0.00
2018-11-29T00:46:03.655Z,0.00
2018-11-29T00:47:03.643Z,0.00
2018-11-29T00:48:03.631Z,0.00
2018-11-29T00:49:03.621Z,0.00
2018-11-29T00:50:03.611Z,0.00
2018-11-29T00:51:03.601Z,0.00
2018-11-29T00:52:03.590Z,0.00
2018-11-29T00:53:03.589Z,0.00
2018-11-29T00:54:03.567Z,0.00
2018-11-29T00:55:03.559Z,0.00
2018-11-29T00:56:03.546Z,0.00
2018-11-29T00:57:03.534Z,0.00
2018-11-29T00:58:03.527Z,0.00
2018-11-29T00:59:03.518Z,0.00
2018-11-29T01:00:03.514Z,0.00
2018-11-29T01:01:03.493Z,0.00
2018-11-29T01:02:03.482Z,0.00
2018-11-29T01:03:03.573Z,0.00
2018-11-29T01:04:04.268Z,0.00
2018-11-29T01:05:03.453Z,0.00
2018-11-29T01:06:03.437Z,0.00
2018-11-29T01:07:03.428Z,0.00
2018-11-29T01:08:03.417Z,0.00
2018-11-29T01:09:03.408Z,0.00
2018-11-29T01:10:03.396Z,0.00
2018-11-29T01:11:03.383Z,0.00
2018-11-29T01:12:03.377Z,0.00
2018-11-29T01:13:03.363Z,0.00
2018-11-29T01:14:03.353Z,0.00
2018-11-29T01:15:03.344Z,0.00
2018-11-29T01:16:03.329Z,0.00
2018-11-29T01:17:03.319Z,0.00
2018-11-29T01:18:03.309Z,0.00
2018-11-29T01:19:03.297Z,0.00
2018-11-29T01:20:03.287Z,0.00
2018-11-29T01:21:03.278Z,0.00
2018-11-29T01:22:03.266Z,0.00
2018-11-29T01:23:03.254Z,0.00
2018-11-29T01:24:03.246Z,0.00
2018-11-29T01:25:03.233Z,0.00
2018-11-29T01:26:03.221Z,0.00
2018-11-29T01:27:03.213Z,0.00
2018-11-29T01:28:03.207Z,0.00
2018-11-29T01:29:03.191Z,0.00
2018-11-29T01:30:03.180Z,0.00
2018-11-29T01:31:03.172Z,0.00
2018-11-29T01:32:03.158Z,0.00
2018-11-29T01:33:03.148Z,0.00
2018-11-29T01:34:03.135Z,0.00
2018-11-29T01:35:03.125Z,0.00
2018-11-29T01:36:03.117Z,0.00
2018-11-29T01:37:03.106Z,0.00
2018-11-29T01:38:03.097Z,0.00
2018-11-29T01:39:03.083Z,0.00
2018-11-29T01:40:03.072Z,0.00
2018-11-29T01:41:03.061Z,0.00
2018-11-29T01:42:03.050Z,0.00
2018-11-29T01:43:03.041Z,0.00
2018-11-29T01:44:03.028Z,0.00
2018-11-29T01:45:03.019Z,0.00
2018-11-29T01:46:03.009Z,0.00
2018-11-29T01:47:02.997Z,0.00
2018-11-29T01:48:02.987Z,0.00
2018-11-29T01:49:02.973Z,0.00
2018-11-29T01:50:02.964Z,0.00
2018-11-29T01:51:02.955Z,0.00
2018-11-29T01:52:02.941Z,0.00
2018-11-29T01:53:02.933Z,0.00
2018-11-29T01:54:02.921Z,0.00
2018-11-29T01:55:02.909Z,0.00
2018-11-29T01:56:02.898Z,0.00
2018-11-29T01:57:02.887Z,0.00
2018-11-29T01:58:02.877Z,0.00
2018-11-29T01:59:02.867Z,0.00
2018-11-29T02:00:02.859Z,0.00
2018-11-29T02:01:02.846Z,0.00
2018-11-29T02:02:02.836Z,0.00
2018-11-29T02:03:02.824Z,0.00
2018-11-29T02:04:02.814Z,0.00
2018-11-29T02:05:02.805Z,0.00
2018-11-29T02:06:02.793Z,0.00
2018-11-29T02:07:02.781Z,0.00
2018-11-29T02:08:02.770Z,0.00
2018-11-29T02:09:02.761Z,0.00
2018-11-29T02:10:02.750Z,0.00
2018-11-29T02:11:02.737Z,0.00
2018-11-29T02:12:02.727Z,0.00
2018-11-29T02:13:02.720Z,0.00
2018-11-29T02:14:02.707Z,0.00
2018-11-29T02:15:02.696Z,0.00
2018-11-29T02:16:02.688Z,0.00
2018-11-29T02:17:02.675Z,0.00
2018-11-29T02:18:02.663Z,0.00
2018-11-29T02:19:02.650Z,0.00
2018-11-29T02:20:02.641Z,0.00
2018-11-29T02:21:02.636Z,0.00
2018-11-29T02:22:02.619Z,0.00
2018-11-29T02:23:02.611Z,0.00
2018-11-29T02:24:02.597Z,0.00
2018-11-29T02:25:02.588Z,0.00
2018-11-29T02:26:02.579Z,0.00
2018-11-29T02:27:02.567Z,0.00
2018-11-29T02:28:02.554Z,0.00
2018-11-29T02:29:02.544Z,0.00
2018-11-29T02:30:02.534Z,0.00
2018-11-29T02:31:02.523Z,0.00
2018-11-29T02:32:02.512Z,0.00
2018-11-29T02:33:02.499Z,0.00
2018-11-29T02:34:02.490Z,0.00
2018-11-29T02:35:02.480Z,0.00
2018-11-29T02:36:02.469Z,0.00
2018-11-29T02:37:02.469Z,0.00
2018-11-29T02:38:02.446Z,0.00
2018-11-29T02:39:02.440Z,0.00
2018-11-29T02:40:02.430Z,0.00
2018-11-29T02:41:02.415Z,0.00
2018-11-29T02:42:02.401Z,0.00
2018-11-29T02:43:02.392Z,0.00
2018-11-29T02:44:02.381Z,0.00
2018-11-29T02:45:02.369Z,0.00
2018-11-29T02:46:02.360Z,0.00
2018-11-29T02:47:02.351Z,0.00
2018-11-29T02:48:02.342Z,0.00
2018-11-29T02:49:02.334Z,0.00
2018-11-29T02:50:02.322Z,0.00
2018-11-29T02:51:02.308Z,0.00
2018-11-29T02:52:02.296Z,0.00
2018-11-29T02:53:02.289Z,0.00
2018-11-29T02:54:02.274Z,0.00
2018-11-29T02:55:02.265Z,0.00
2018-11-29T02:56:02.256Z,0.00
2018-11-29T02:57:02.244Z,0.00
2018-11-29T02:58:02.229Z,0.00
2018-11-29T02:59:02.218Z,0.00
2018-11-29T03:00:02.207Z,0.00
2018-11-29T03:01:02.198Z,0.00
2018-11-29T03:02:02.188Z,0.00
2018-11-29T03:03:02.182Z,0.00
2018-11-29T03:04:02.170Z,0.00
2018-11-29T03:05:02.156Z,0.00
2018-11-29T03:06:02.143Z,0.00
2018-11-29T03:07:02.144Z,0.00
2018-11-29T03:08:02.123Z,0.00
2018-11-29T03:09:02.113Z,0.00
2018-11-29T03:10:02.125Z,0.00
2018-11-29T03:11:02.089Z,0.00
2018-11-29T03:12:02.079Z,0.00
2018-11-29T03:13:02.069Z,0.00
2018-11-29T03:14:02.058Z,0.00
2018-11-29T03:15:02.047Z,0.00
2018-11-29T03:16:02.039Z,0.00
2018-11-29T03:17:02.024Z,0.00
2018-11-29T03:18:02.017Z,0.00
2018-11-29T03:19:02.003Z,0.00
2018-11-29T03:20:02.021Z,0.00
2018-11-29T03:21:01.982Z,0.00
2018-11-29T03:22:01.974Z,0.00
2018-11-29T03:23:01.965Z,0.00
2018-11-29T03:24:01.951Z,0.00
2018-11-29T03:25:01.942Z,0.00
2018-11-29T03:26:01.928Z,0.00
2018-11-29T03:27:01.920Z,0.00
2018-11-29T03:28:01.906Z,0.00
2018-11-29T03:29:01.910Z,0.00
2018-11-29T03:30:01.899Z,0.00
2018-11-29T03:31:01.875Z,0.00
2018-11-29T03:32:01.864Z,0.00
2018-11-29T03:33:01.853Z,0.00
2018-11-29T03:34:01.842Z,0.00
2018-11-29T03:35:01.837Z,0.00
2018-11-29T03:36:01.823Z,0.00
2018-11-29T03:37:01.810Z,0.00
2018-11-29T03:38:01.800Z,0.00
2018-11-29T03:39:01.789Z,0.00
2018-11-29T03:40:01.799Z,0.00
2018-11-29T03:41:01.765Z,0.00
2018-11-29T03:42:01.756Z,0.00
2018-11-29T03:43:01.745Z,0.00
2018-11-29T03:44:01.734Z,0.00
2018-11-29T03:45:01.726Z,0.00
2018-11-29T03:46:01.715Z,0.00
2018-11-29T03:47:01.705Z,0.00
2018-11-29T03:48:01.693Z,0.00
2018-11-29T03:49:01.680Z,0.00
2018-11-29T03:50:01.670Z,0.00
2018-11-29T03:51:01.660Z,0.00
2018-11-29T03:52:01.650Z,0.00
2018-11-29T03:53:01.644Z,0.00
2018-11-29T03:54:01.628Z,0.00
2018-11-29T03:55:01.620Z,0.00
2018-11-29T03:56:01.606Z,0.00
2018-11-29T03:57:01.601Z,0.00
2018-11-29T03:58:01.582Z,0.00
2018-11-29T03:59:01.574Z,0.00
2018-11-29T04:00:01.561Z,0.00
2018-11-29T04:01:01.554Z,0.00
2018-11-29T04:02:01.539Z,0.00
2018-11-29T04:03:01.530Z,0.00
2018-11-29T04:04:01.526Z,0.00
2018-11-29T04:05:01.525Z,0.00
2018-11-29T04:06:01.497Z,0.00
2018-11-29T04:07:01.488Z,0.00
2018-11-29T04:08:01.475Z,0.00
2018-11-29T04:09:01.463Z,0.00
2018-11-29T04:10:01.455Z,0.00
2018-11-29T04:11:01.445Z,0.00
2018-11-29T04:12:01.436Z,0.00
2018-11-29T04:13:01.422Z,0.00
2018-11-29T04:14:01.417Z,0.00
2018-11-29T04:15:01.416Z,0.00
2018-11-29T04:16:01.389Z,0.00
2018-11-29T04:17:01.378Z,0.00
2018-11-29T04:18:01.369Z,0.00
2018-11-29T04:19:01.356Z,0.00
2018-11-29T04:20:01.347Z,0.00
2018-11-29T04:21:01.340Z,0.00
2018-11-29T04:22:01.336Z,0.00
2018-11-29T04:23:01.314Z,0.00
2018-11-29T04:24:01.304Z,0.00
2018-11-29T04:25:01.293Z,0.00
2018-11-29T04:26:01.283Z,0.00
2018-11-29T04:27:01.272Z,0.00
2018-11-29T04:28:01.261Z,0.00
2018-11-29T04:29:01.256Z,0.00
2018-11-29T04:30:01.242Z,0.00
2018-11-29T04:31:01.228Z,0.00
2018-11-29T04:32:01.219Z,0.00
2018-11-29T04:33:01.209Z,0.00
2018-11-29T04:34:01.195Z,0.00
2018-11-29T04:35:01.185Z,0.00
2018-11-29T04:36:01.175Z,0.00
2018-11-29T04:37:01.167Z,0.00
2018-11-29T04:38:01.152Z,0.00
2018-11-29T04:39:01.144Z,0.00
2018-11-29T04:40:01.139Z,0.00
2018-11-29T04:41:01.119Z,0.00
2018-11-29T04:42:01.110Z,0.00
2018-11-29T04:43:01.154Z,0.00
2018-11-29T04:44:01.088Z,0.00
2018-11-29T04:45:01.078Z,0.00
2018-11-29T04:46:01.069Z,0.00
2018-11-29T04:47:01.056Z,0.00
2018-11-29T04:48:01.045Z,0.00
2018-11-29T04:49:01.036Z,0.00
2018-11-29T04:50:01.023Z,0.00
2018-11-29T04:51:01.013Z,0.00
2018-11-29T04:52:01.003Z,0.00
2018-11-29T04:53:00.995Z,0.00
2018-11-29T04:54:00.990Z,0.00
2018-11-29T04:55:00.969Z,0.00
2018-11-29T04:56:00.962Z,0.00
2018-11-29T04:57:00.948Z,0.00
2018-11-29T04:58:00.937Z,0.00
2018-11-29T04:59:00.925Z,0.00
2018-11-29T05:00:00.918Z,0.00
2018-11-29T05:01:00.906Z,0.00
2018-11-29T05:02:00.895Z,0.00
2018-11-29T05:03:00.885Z,0.00
2018-11-29T05:04:00.877Z,0.00
2018-11-29T05:05:00.866Z,0.00
2018-11-29T05:06:00.857Z,0.00
2018-11-29T05:07:00.842Z,0.00
2018-11-29T05:08:00.833Z,0.00
2018-11-29T05:09:00.818Z,0.00
2018-11-29T05:10:00.808Z,0.00
2018-11-29T05:11:00.799Z,0.00
2018-11-29T05:12:00.788Z,0.00
2018-11-29T05:13:00.777Z,0.00
2018-11-29T05:14:00.766Z,0.00
2018-11-29T05:15:00.754Z,0.00
2018-11-29T05:16:00.747Z,0.00
2018-11-29T05:17:00.736Z,0.00
2018-11-29T05:18:00.723Z,0.00
2018-11-29T05:19:00.713Z,0.00
2018-11-29T05:20:00.706Z,0.00
2018-11-29T05:21:00.740Z,0.00
2018-11-29T05:22:00.677Z,0.00
2018-11-29T05:23:00.670Z,0.00
2018-11-29T05:24:00.673Z,0.00
2018-11-29T05:25:00.649Z,0.00
2018-11-29T05:26:00.646Z,0.00
2018-11-29T05:27:00.625Z,0.00
2018-11-29T05:28:00.613Z,0.00
2018-11-29T05:29:00.603Z,0.00
2018-11-29T05:30:00.597Z,0.00
2018-11-29T05:31:00.584Z,0.00
2018-11-29T05:32:00.573Z,0.00
2018-11-29T05:33:00.560Z,0.00
2018-11-29T05:34:00.550Z,0.00
2018-11-29T05:35:00.539Z,0.00
2018-11-29T05:36:00.529Z,0.00
2018-11-29T05:37:00.518Z,0.00
2018-11-29T05:38:00.505Z,0.00
2018-11-29T05:39:00.497Z,0.00
2018-11-29T05:40:00.486Z,0.00
2018-11-29T05:41:00.476Z,0.00
2018-11-29T05:42:00.464Z,0.00
2018-11-29T05:43:00.454Z,0.00
2018-11-29T05:44:00.445Z,0.00
2018-11-29T05:45:00.431Z,0.00
2018-11-29T05:46:00.423Z,0.00
2018-11-29T05:47:00.408Z,0.00
2018-11-29T05:48:00.397Z,0.00
2018-11-29T05:49:00.387Z,0.00
2018-11-29T05:50:00.378Z,0.00
2018-11-29T05:51:00.367Z,0.00
2018-11-29T05:52:00.355Z,0.00
2018-11-29T05:53:00.346Z,0.00
2018-11-29T05:54:00.334Z,0.00
2018-11-29T05:55:00.327Z,0.00
2018-11-29T05:56:00.316Z,0.00
2018-11-29T05:57:00.300Z,0.00
2018-11-29T05:58:00.292Z,0.00
2018-11-29T05:59:00.286Z,0.00
2018-11-29T06:00:00.268Z,0.00
2018-11-29T06:01:00.257Z,0.00
2018-11-29T06:02:00.252Z,0.00
2018-11-29T06:03:00.237Z,0.00
2018-11-29T06:04:00.227Z,0.00
2018-11-29T06:05:00.230Z,0.00
2018-11-29T06:06:00.205Z,0.00
2018-11-29T06:07:00.201Z,0.00
2018-11-29T06:08:00.185Z,0.00
2018-11-29T06:09:00.174Z,0.00
2018-11-29T06:10:00.161Z,0.00
2018-11-29T06:11:00.150Z,0.00
2018-11-29T06:12:00.142Z,0.00
2018-11-29T06:13:00.130Z,0.00
2018-11-29T06:14:00.118Z,0.00
2018-11-29T06:15:00.113Z,0.00
2018-11-29T06:16:00.100Z,0.00
2018-11-29T06:17:00.087Z,0.00
2018-11-29T06:18:00.076Z,0.00
2018-11-29T06:19:00.066Z,0.00
2018-11-29T06:20:00.054Z,0.00
2018-11-29T06:21:00.043Z,0.00
2018-11-29T06:22:00.034Z,0.00
2018-11-29T06:23:00.025Z,0.00
2018-11-29T06:24:00.016Z,0.00
2018-11-29T06:25:00.002Z,0.00
2018-11-29T06:25:59.989Z,0.00
2018-11-29T06:26:59.979Z,0.00
2018-11-29T06:27:59.967Z,0.00
2018-11-29T06:28:59.956Z,0.00
2018-11-29T06:29:59.947Z,0.00
2018-11-29T06:30:59.937Z,0.00
2018-11-29T06:31:59.924Z,0.00
2018-11-29T06:32:59.914Z,0.00
2018-11-29T06:33:59.903Z,0.00
2018-11-29T06:34:59.892Z,0.00
2018-11-29T06:36:02.069Z,0.00
2018-11-29T06:36:59.873Z,0.00
2018-11-29T06:37:59.859Z,0.00
2018-11-29T06:38:59.850Z,0.00
2018-11-29T06:39:59.839Z,0.00
2018-11-29T06:40:59.828Z,0.00
2018-11-29T06:41:59.818Z,0.00
2018-11-29T06:42:59.806Z,0.00
2018-11-29T06:43:59.799Z,0.00
2018-11-29T06:44:59.784Z,0.00
2018-11-29T06:45:59.776Z,0.00
2018-11-29T06:46:59.774Z,0.00
2018-11-29T06:47:59.754Z,0.00
2018-11-29T06:48:59.750Z,0.00
2018-11-29T06:49:59.734Z,0.00
2018-11-29T06:50:59.721Z,0.00
2018-11-29T06:51:59.709Z,0.00
2018-11-29T06:52:59.701Z,0.00
2018-11-29T06:53:59.691Z,0.00
2018-11-29T06:54:59.678Z,0.00
2018-11-29T06:55:59.670Z,0.00
2018-11-29T06:56:59.657Z,0.00
2018-11-29T06:57:59.647Z,0.00
2018-11-29T06:58:59.635Z,0.00
2018-11-29T06:59:59.623Z,0.00
2018-11-29T07:00:59.618Z,0.00
2018-11-29T07:01:59.603Z,0.00
2018-11-29T07:02:59.591Z,0.00
2018-11-29T07:03:59.621Z,0.00
2018-11-29T07:04:59.569Z,0.00
2018-11-29T07:05:59.559Z,0.00
2018-11-29T07:06:59.552Z,0.00
2018-11-29T07:07:59.539Z,5.62
2018-11-29T07:08:59.525Z,5.62
2018-11-29T07:09:59.518Z,5.62
2018-11-29T07:10:59.505Z,5.62
2018-11-29T07:11:59.495Z,5.62
2018-11-29T07:12:59.482Z,0.00
2018-11-29T07:13:59.489Z,0.00
2018-11-29T07:14:59.462Z,0.00
2018-11-29T07:15:59.457Z,0.00
2018-11-29T07:16:59.440Z,0.00
2018-11-29T07:17:59.431Z,5.62
2018-11-29T07:18:59.420Z,5.62
2018-11-29T07:19:59.413Z,5.62
2018-11-29T07:20:59.397Z,5.62
2018-11-29T07:21:59.385Z,5.62
2018-11-29T07:22:59.378Z,5.62
2018-11-29T07:23:59.366Z,5.62
2018-11-29T07:24:59.355Z,5.62
2018-11-29T07:25:59.344Z,5.62
2018-11-29T07:26:59.333Z,5.62
2018-11-29T07:27:59.321Z,5.62
2018-11-29T07:28:59.316Z,11.25
2018-11-29T07:29:59.302Z,11.25
2018-11-29T07:30:59.295Z,11.25
2018-11-29T07:31:59.301Z,11.25
2018-11-29T07:32:59.269Z,16.87
2018-11-29T07:33:59.257Z,16.87
2018-11-29T07:34:59.247Z,16.87
2018-11-29T07:35:59.235Z,22.50
2018-11-29T07:36:59.225Z,22.50
2018-11-29T07:37:59.213Z,28.12
2018-11-29T07:38:59.204Z,28.12
2018-11-29T07:39:59.193Z,28.12
2018-11-29T07:40:59.203Z,33.75
2018-11-29T07:41:59.170Z,33.75
2018-11-29T07:42:59.160Z,33.75
2018-11-29T07:43:59.150Z,39.37
2018-11-29T07:44:59.137Z,39.37
2018-11-29T07:45:59.131Z,39.37
2018-11-29T07:46:59.116Z,39.37
2018-11-29T07:47:59.106Z,45.00
2018-11-29T07:48:59.094Z,45.00
2018-11-29T07:49:59.085Z,45.00
2018-11-29T07:50:59.075Z,45.00
2018-11-29T07:51:59.062Z,45.00
2018-11-29T07:52:59.054Z,45.00
2018-11-29T07:53:59.043Z,50.62
2018-11-29T07:54:59.031Z,50.62
2018-11-29T07:55:59.022Z,50.62
2018-11-29T07:56:59.009Z,50.62
2018-11-29T07:57:58.999Z,50.62
2018-11-29T07:58:58.989Z,56.25
2018-11-29T07:59:58.999Z,56.25
2018-11-29T08:00:58.970Z,56.25
2018-11-29T08:01:58.958Z,56.25
2018-11-29T08:02:58.944Z,56.25
2018-11-29T08:03:58.931Z,61.87
2018-11-29T08:04:58.922Z,61.87
2018-11-29T08:05:58.913Z,61.87
2018-11-29T08:06:58.901Z,61.87
2018-11-29T08:07:58.891Z,61.87
2018-11-29T08:08:58.880Z,61.87
2018-11-29T08:09:58.866Z,61.87
2018-11-29T08:10:58.857Z,61.87
2018-11-29T08:11:58.847Z,61.87
2018-11-29T08:12:58.871Z,61.87
2018-11-29T08:13:58.840Z,61.87
2018-11-29T08:14:58.815Z,56.25
2018-11-29T08:15:58.805Z,56.25
2018-11-29T08:16:58.791Z,50.62
2018-11-29T08:17:58.784Z,50.62
2018-11-29T08:18:58.772Z,50.62
2018-11-29T08:19:58.760Z,45.00
2018-11-29T08:20:58.750Z,45.00
2018-11-29T08:21:58.741Z,45.00
2018-11-29T08:22:58.729Z,39.37
2018-11-29T08:23:58.719Z,39.37
2018-11-29T08:24:58.705Z,39.37
2018-11-29T08:25:58.694Z,39.37
2018-11-29T08:26:58.682Z,39.37
2018-11-29T08:27:58.672Z,39.37
2018-11-29T08:28:58.662Z,39.37
2018-11-29T08:29:58.653Z,39.37
2018-11-29T08:30:58.642Z,39.37
2018-11-29T08:31:58.630Z,39.37
2018-11-29T08:32:58.618Z,39.37
2018-11-29T08:33:58.607Z,39.37
2018-11-29T08:34:58.598Z,39.37
2018-11-29T08:35:58.585Z,39.37
2018-11-29T08:36:58.580Z,45.00
2018-11-29T08:37:58.563Z,45.00
2018-11-29T08:38:58.560Z,45.00
2018-11-29T08:39:58.544Z,50.62
2018-11-29T08:40:58.532Z,50.62
2018-11-29T08:41:58.523Z,50.62
2018-11-29T08:42:58.510Z,50.62
2018-11-29T08:43:58.500Z,50.62
2018-11-29T08:44:58.488Z,45.00
2018-11-29T08:45:58.480Z,45.00
2018-11-29T08:46:58.467Z,45.00
2018-11-29T08:47:58.457Z,45.00
2018-11-29T08:48:58.448Z,45.00
2018-11-29T08:49:58.436Z,45.00
2018-11-29T08:50:58.427Z,50.62
2018-11-29T08:51:58.412Z,50.62
2018-11-29T08:52:58.403Z,50.62
2018-11-29T08:53:58.443Z,50.62
2018-11-29T08:54:58.380Z,50.62
2018-11-29T08:55:58.371Z,50.62
2018-11-29T08:56:58.361Z,50.62
2018-11-29T08:57:58.350Z,56.25
2018-11-29T08:58:58.337Z,56.25
2018-11-29T08:59:58.324Z,56.25
2018-11-29T09:00:58.316Z,56.25
2018-11-29T09:01:58.306Z,61.87
2018-11-29T09:02:58.292Z,61.87
2018-11-29T09:03:58.281Z,61.87
2018-11-29T09:04:58.271Z,61.87
2018-11-29T09:05:58.262Z,61.87
2018-11-29T09:06:58.248Z,56.25
2018-11-29T09:07:58.241Z,56.25
2018-11-29T09:08:58.229Z,56.25
2018-11-29T09:09:58.216Z,56.25
2018-11-29T09:10:58.208Z,56.25
2018-11-29T09:11:58.197Z,50.62
2018-11-29T09:12:58.186Z,50.62
2018-11-29T09:13:58.174Z,50.62
2018-11-29T09:14:58.171Z,50.62
2018-11-29T09:15:58.153Z,50.62
2018-11-29T09:16:58.142Z,50.62
2018-11-29T09:17:58.135Z,50.62
2018-11-29T09:18:58.122Z,50.62
2018-11-29T09:19:58.112Z,50.62
2018-11-29T09:20:58.099Z,45.00
2018-11-29T09:21:58.089Z,45.00
2018-11-29T09:22:58.075Z,50.62
2018-11-29T09:23:58.069Z,45.00
2018-11-29T09:24:58.056Z,45.00
2018-11-29T09:25:58.043Z,45.00
2018-11-29T09:26:58.034Z,45.00
2018-11-29T09:27:58.024Z,45.00
2018-11-29T09:28:58.010Z,39.37
2018-11-29T09:29:58.003Z,39.37
2018-11-29T09:30:57.989Z,39.37
2018-11-29T09:31:57.978Z,39.37
2018-11-29T09:32:57.971Z,39.37
2018-11-29T09:33:57.957Z,39.37
2018-11-29T09:34:57.947Z,39.37
2018-11-29T09:35:57.934Z,45.00
2018-11-29T09:36:57.924Z,45.00
2018-11-29T09:37:57.914Z,45.00
2018-11-29T09:38:57.933Z,45.00
2018-11-29T09:39:57.894Z,45.00
2018-11-29T09:40:57.881Z,45.00
2018-11-29T09:41:57.872Z,45.00
2018-11-29T09:42:57.862Z,45.00
2018-11-29T09:43:57.850Z,50.62
2018-11-29T09:44:57.841Z,50.62
2018-11-29T09:45:57.834Z,50.62
2018-11-29T09:46:57.817Z,50.62
2018-11-29T09:47:57.806Z,50.62
2018-11-29T09:48:57.793Z,50.62
2018-11-29T09:49:57.785Z,50.62
2018-11-29T09:50:57.849Z,50.62
2018-11-29T09:51:57.763Z,50.62
2018-11-29T09:52:57.804Z,50.62
2018-11-29T09:53:57.818Z,56.25
2018-11-29T09:54:57.729Z,56.25
2018-11-29T09:55:57.720Z,56.25
2018-11-29T09:56:57.709Z,56.25
2018-11-29T09:57:57.697Z,56.25
2018-11-29T09:58:57.691Z,56.25
2018-11-29T09:59:57.679Z,61.87
2018-11-29T10:00:57.665Z,61.87
2018-11-29T10:01:57.654Z,61.87
2018-11-29T10:02:57.643Z,61.87
2018-11-29T10:03:57.633Z,61.87
2018-11-29T10:04:57.623Z,61.87
2018-11-29T10:05:57.611Z,61.87
2018-11-29T10:06:57.601Z,67.50
2018-11-29T10:07:57.591Z,67.50
2018-11-29T10:08:57.580Z,73.12
2018-11-29T10:09:57.567Z,73.12
2018-11-29T10:10:57.557Z,73.12
2018-11-29T10:11:57.549Z,73.12
2018-11-29T10:12:57.536Z,78.75
2018-11-29T10:13:57.530Z,78.75
2018-11-29T10:14:57.515Z,73.12
2018-11-29T10:15:57.503Z,73.12
2018-11-29T10:16:57.495Z,73.12
2018-11-29T10:17:57.480Z,78.75
2018-11-29T10:18:57.472Z,78.75
2018-11-29T10:19:57.465Z,78.75
2018-11-29T10:20:57.451Z,84.37
2018-11-29T10:21:57.437Z,90.00
2018-11-29T10:22:57.429Z,90.00
2018-11-29T10:23:57.416Z,95.62
2018-11-29T10:24:57.409Z,95.62
2018-11-29T10:25:57.395Z,95.62
2018-11-29T10:26:57.387Z,90.00
2018-11-29T10:27:57.375Z,90.00
2018-11-29T10:28:57.372Z,90.00
2018-11-29T10:29:57.357Z,90.00
2018-11-29T10:30:57.341Z,90.00
2018-11-29T10:31:57.330Z,95.62
2018-11-29T10:32:57.348Z,95.62
2018-11-29T10:33:57.310Z,101.25
2018-11-29T10:34:57.299Z,101.25
2018-11-29T10:35:59.290Z,101.25
2018-11-29T10:36:57.303Z,101.25
2018-11-29T10:37:57.268Z,101.25
2018-11-29T10:38:57.254Z,101.25
2018-11-29T10:39:57.245Z,101.25
2018-11-29T10:40:57.234Z,101.25
2018-11-29T10:41:57.221Z,106.87
2018-11-29T10:42:57.211Z,106.87
2018-11-29T10:43:57.199Z,106.87
2018-11-29T10:44:57.189Z,112.50
2018-11-29T10:45:57.179Z,112.50
2018-11-29T10:46:57.169Z,112.50
2018-11-29T10:47:57.159Z,106.87
2018-11-29T10:48:57.217Z,106.87
2018-11-29T10:49:57.136Z,101.25
2018-11-29T10:50:57.125Z,101.25
2018-11-29T10:51:57.114Z,95.62
2018-11-29T10:52:57.159Z,95.62
2018-11-29T10:53:57.094Z,95.62
2018-11-29T10:54:57.132Z,90.00
2018-11-29T10:55:57.071Z,90.00
2018-11-29T10:56:57.062Z,90.00
2018-11-29T10:57:57.048Z,90.00
2018-11-29T10:58:57.042Z,90.00
2018-11-29T10:59:58.446Z,90.00
2018-11-29T11:00:57.015Z,90.00
2018-11-29T11:01:57.058Z,90.00
2018-11-29T11:02:56.995Z,90.00
2018-11-29T11:03:56.987Z,90.00
2018-11-29T11:04:56.975Z,90.00
2018-11-29T11:05:56.963Z,95.62
2018-11-29T11:06:56.999Z,95.62
2018-11-29T11:07:56.944Z,95.62
2018-11-29T11:08:56.979Z,90.00
2018-11-29T11:09:56.919Z,90.00
2018-11-29T11:10:56.909Z,84.37
2018-11-29T11:11:56.896Z,84.37
2018-11-29T11:12:56.887Z,78.75
2018-11-29T11:13:56.877Z,73.12
2018-11-29T11:14:56.866Z,73.12
2018-11-29T11:15:56.856Z,67.50
2018-11-29T11:16:56.845Z,67.50
2018-11-29T11:17:56.831Z,67.50
2018-11-29T11:18:56.820Z,61.87
2018-11-29T11:19:56.811Z,56.25
2018-11-29T11:20:56.800Z,56.25
2018-11-29T11:21:57.956Z,50.62
2018-11-29T11:22:56.782Z,50.62
2018-11-29T11:23:59.424Z,50.62
2018-11-29T11:24:56.757Z,45.00
2018-11-29T11:25:56.752Z,45.00
2018-11-29T11:26:56.735Z,45.00
2018-11-29T11:27:56.730Z,50.62
2018-11-29T11:28:56.714Z,50.62
2018-11-29T11:29:56.704Z,50.62
2018-11-29T11:30:56.694Z,56.25
2018-11-29T11:31:56.683Z,56.25
2018-11-29T11:32:56.675Z,56.25
2018-11-29T11:33:56.659Z,56.25
2018-11-29T11:34:56.650Z,56.25
2018-11-29T11:35:56.638Z,56.25
2018-11-29T11:36:56.628Z,56.25
2018-11-29T11:37:56.618Z,56.25
2018-11-29T11:38:56.604Z,50.62
2018-11-29T11:39:56.622Z,50.62
2018-11-29T11:40:56.583Z,50.62
2018-11-29T11:41:56.573Z,50.62
2018-11-29T11:42:56.564Z,50.62
2018-11-29T11:43:56.553Z,50.62
2018-11-29T11:44:56.540Z,50.62
2018-11-29T11:45:56.528Z,50.62
2018-11-29T11:46:56.518Z,56.25
2018-11-29T11:48:02.965Z,56.25
2018-11-29T11:48:57.514Z,56.25
2018-11-29T11:49:56.484Z,50.62
2018-11-29T11:50:56.475Z,50.62
2018-11-29T11:51:56.466Z,39.37
2018-11-29T11:52:56.456Z,28.12
2018-11-29T11:53:56.442Z,33.75
2018-11-29T11:54:56.431Z,39.37
2018-11-29T11:55:56.422Z,33.75
2018-11-29T11:56:56.411Z,33.75
2018-11-29T11:57:56.416Z,39.37
2018-11-29T11:58:56.391Z,50.62
2018-11-29T11:59:56.377Z,50.62
2018-11-29T12:00:56.367Z,56.25
2018-11-29T12:01:56.358Z,56.25
2018-11-29T12:02:56.344Z,56.25
2018-11-29T12:03:56.339Z,56.25
2018-11-29T12:04:56.324Z,56.25
2018-11-29T12:05:56.319Z,56.25
2018-11-29T12:06:56.302Z,56.25
2018-11-29T12:07:56.290Z,50.62
2018-11-29T12:08:56.279Z,50.62
2018-11-29T12:09:56.269Z,45.00
2018-11-29T12:10:56.259Z,45.00
2018-11-29T12:11:56.248Z,45.00
2018-11-29T12:12:56.236Z,50.62
2018-11-29T12:13:56.225Z,45.00
2018-11-29T12:14:56.218Z,45.00
2018-11-29T12:15:56.204Z,39.37
2018-11-29T12:16:56.212Z,39.37
2018-11-29T12:17:56.182Z,33.75
2018-11-29T12:19:02.122Z,33.75
2018-11-29T12:23:08.417Z,28.12
2018-11-29T12:24:08.414Z,28.12
2018-11-29T12:25:08.397Z,22.50
2018-11-29T12:26:08.387Z,22.50
2018-11-29T12:27:08.375Z,22.50
2018-11-29T12:28:08.364Z,22.50
2018-11-29T12:29:08.352Z,22.50
2018-11-29T12:30:08.343Z,22.50
2018-11-29T12:31:08.330Z,22.50
2018-11-29T12:32:08.324Z,22.50
2018-11-29T12:33:08.340Z,22.50
2018-11-29T12:34:08.300Z,22.50
2018-11-29T12:35:08.286Z,22.50
2018-11-29T12:36:08.281Z,22.50
2018-11-29T12:37:08.271Z,22.50
2018-11-29T12:38:08.280Z,22.50
2018-11-29T12:39:08.244Z,22.50
2018-11-29T12:40:08.235Z,22.50
2018-11-29T12:41:08.224Z,16.87
2018-11-29T12:42:08.210Z,16.87
2018-11-29T12:43:08.201Z,16.87
2018-11-29T12:44:08.203Z,16.87
2018-11-29T12:45:08.179Z,16.87
2018-11-29T12:46:08.171Z,16.87
2018-11-29T12:47:08.166Z,16.87
2018-11-29T12:48:08.147Z,16.87
2018-11-29T12:49:08.138Z,22.50
2018-11-29T12:50:08.128Z,22.50
2018-11-29T12:51:08.113Z,22.50
2018-11-29T12:52:08.106Z,22.50
2018-11-29T12:53:08.094Z,22.50
2018-11-29T12:54:08.087Z,22.50
2018-11-29T12:55:08.071Z,22.50
2018-11-29T12:56:08.061Z,22.50
2018-11-29T12:57:08.051Z,22.50
2018-11-29T12:58:08.038Z,22.50
2018-11-29T12:59:08.027Z,22.50
2018-11-29T13:00:08.019Z,22.50
2018-11-29T13:01:08.005Z,16.87
2018-11-29T13:02:07.995Z,16.87
2018-11-29T13:03:07.988Z,16.87
2018-11-29T13:04:07.976Z,16.87
2018-11-29T13:05:07.964Z,16.87
2018-11-29T13:06:07.953Z,16.87
2018-11-29T13:07:07.944Z,16.87
2018-11-29T13:08:07.932Z,16.87
2018-11-29T13:09:07.920Z,16.87